sensor_id;sensor_type;location;lat;lon;timestamp;pressure;altitude;pressure_sealevel;temperature;humidity
38253;BME280;24785;52.372;20.672;2022-12-18T00:04:30;102089.41;;;-4.88;100.00
38253;BME280;24785;52.372;20.672;2022-12-18T00:14:31;102099.78;;;-4.77;100.00
38253;BME280;24785;52.372;20.672;2022-12-18T00:24:32;102113.81;;;-4.78;100.00
38253;BME280;24785;52.372;20.672;2022-12-18T00:34:33;102124.53;;;-4.81;100.00
38253;BME280;24785;52.372;20.672;2022-12-18T00:44:34;102143.22;;;-4.64;100.00
38253;BME280;24785;52.372;20.672;2022-12-18T00:54:34;102148.72;;;-4.67;100.00
38253;BME280;24785;52.372;20.672;2022-12-18T01:04:35;102155.03;;;-4.70;100.00
38253;BME280;24785;52.372;20.672;2022-12-18T01:14:36;102167.50;;;-4.73;100.00
38253;BME280;24785;52.372;20.672;2022-12-18T01:24:38;102186.09;;;-4.77;100.00
38253;BME280;24785;52.372;20.672;2022-12-18T01:34:39;102197.31;;;-4.65;100.00
38253;BME280;24785;52.372;20.672;2022-12-18T01:45:02;102211.97;;;-4.73;100.00
38253;BME280;24785;52.372;20.672;2022-12-18T01:55:05;102230.69;;;-4.78;100.00
38253;BME280;24785;52.372;20.672;2022-12-18T02:05:07;102244.84;;;-4.81;100.00
38253;BME280;24785;52.372;20.672;2022-12-18T02:15:31;102255.75;;;-4.76;100.00
38253;BME280;24785;52.372;20.672;2022-12-18T02:36:28;102279.28;;;-4.96;100.00
38253;BME280;24785;52.372;20.672;2022-12-18T02:46:37;102298.94;;;-5.02;100.00
38253;BME280;24785;52.372;20.672;2022-12-18T02:56:51;102307.09;;;-5.16;100.00
38253;BME280;24785;52.372;20.672;2022-12-18T03:06:59;102343.81;;;-5.29;100.00
38253;BME280;24785;52.372;20.672;2022-12-18T03:17:05;102347.56;;;-5.11;100.00
38253;BME280;24785;52.372;20.672;2022-12-18T03:27:13;102356.13;;;-5.63;100.00
38253;BME280;24785;52.372;20.672;2022-12-18T03:37:15;102368.75;;;-5.90;100.00
38253;BME280;24785;52.372;20.672;2022-12-18T03:47:54;102387.13;;;-6.60;100.00
38253;BME280;24785;52.372;20.672;2022-12-18T03:57:57;102382.13;;;-7.11;100.00
38253;BME280;24785;52.372;20.672;2022-12-18T04:07:59;102406.25;;;-7.20;100.00
38253;BME280;24785;52.372;20.672;2022-12-18T04:18:02;102425.50;;;-7.10;100.00
38253;BME280;24785;52.372;20.672;2022-12-18T04:28:03;102430.63;;;-7.09;100.00
38253;BME280;24785;52.372;20.672;2022-12-18T04:38:05;102441.53;;;-7.04;100.00
38253;BME280;24785;52.372;20.672;2022-12-18T04:48:07;102453.31;;;-7.11;100.00
38253;BME280;24785;52.372;20.672;2022-12-18T04:58:08;102469.81;;;-7.23;100.00
38253;BME280;24785;52.372;20.672;2022-12-18T05:08:09;102479.47;;;-7.49;100.00
38253;BME280;24785;52.372;20.672;2022-12-18T05:18:10;102506.34;;;-7.48;100.00
38253;BME280;24785;52.372;20.672;2022-12-18T05:28:11;102503.66;;;-7.10;100.00
38253;BME280;24785;52.372;20.672;2022-12-18T05:38:12;102526.34;;;-6.63;100.00
38253;BME280;24785;52.372;20.672;2022-12-18T05:48:13;102532.78;;;-6.80;100.00
38253;BME280;24785;52.372;20.672;2022-12-18T05:58:15;102536.00;;;-6.76;100.00
38253;BME280;24785;52.372;20.672;2022-12-18T06:08:16;102538.44;;;-6.49;100.00
38253;BME280;24785;52.372;20.672;2022-12-18T06:18:17;102574.44;;;-6.30;100.00
38253;BME280;24785;52.372;20.672;2022-12-18T06:28:18;102591.88;;;-6.31;100.00
38253;BME280;24785;52.372;20.672;2022-12-18T06:38:19;102598.53;;;-6.27;100.00
38253;BME280;24785;52.372;20.672;2022-12-18T06:48:20;102615.03;;;-6.26;100.00
38253;BME280;24785;52.372;20.672;2022-12-18T06:58:21;102619.69;;;-6.19;100.00
38253;BME280;24785;52.372;20.672;2022-12-18T07:08:23;102635.06;;;-5.68;100.00
38253;BME280;24785;52.372;20.672;2022-12-18T07:18:23;102659.59;;;-5.58;100.00
38253;BME280;24785;52.372;20.672;2022-12-18T07:28:24;102670.69;;;-5.43;100.00
38253;BME280;24785;52.372;20.672;2022-12-18T07:38:25;102700.53;;;-5.34;100.00
38253;BME280;24785;52.372;20.672;2022-12-18T07:48:28;102713.13;;;-5.28;100.00
38253;BME280;24785;52.372;20.672;2022-12-18T07:58:29;102711.56;;;-5.31;100.00
38253;BME280;24785;52.372;20.672;2022-12-18T08:08:30;102729.94;;;-5.20;100.00
38253;BME280;24785;52.372;20.672;2022-12-18T08:18:32;102747.72;;;-4.90;100.00
38253;BME280;24785;52.372;20.672;2022-12-18T08:28:34;102765.19;;;-4.79;100.00
38253;BME280;24785;52.372;20.672;2022-12-18T08:38:35;102771.44;;;-4.58;100.00
38253;BME280;24785;52.372;20.672;2022-12-18T08:48:36;102778.94;;;-4.42;100.00
38253;BME280;24785;52.372;20.672;2022-12-18T08:58:40;102775.13;;;-4.27;100.00
38253;BME280;24785;52.372;20.672;2022-12-18T09:08:42;102797.75;;;-3.92;100.00
38253;BME280;24785;52.372;20.672;2022-12-18T09:18:43;102818.06;;;-4.63;100.00
38253;BME280;24785;52.372;20.672;2022-12-18T09:28:44;102805.81;;;-4.62;100.00
38253;BME280;24785;52.372;20.672;2022-12-18T09:38:45;102809.06;;;-4.03;100.00
38253;BME280;24785;52.372;20.672;2022-12-18T09:48:49;102812.88;;;-3.30;100.00
38253;BME280;24785;52.372;20.672;2022-12-18T09:58:58;102833.81;;;-3.62;100.00
38253;BME280;24785;52.372;20.672;2022-12-18T10:20:01;102823.44;;;-3.64;100.00
38253;BME280;24785;52.372;20.672;2022-12-18T10:30:13;102823.41;;;-3.53;100.00
38253;BME280;24785;52.372;20.672;2022-12-18T10:40:15;102821.47;;;-3.39;100.00
38253;BME280;24785;52.372;20.672;2022-12-18T10:50:34;102830.06;;;-3.05;100.00
38253;BME280;24785;52.372;20.672;2022-12-18T11:00:35;102814.00;;;-2.80;100.00
38253;BME280;24785;52.372;20.672;2022-12-18T11:10:37;102805.72;;;-2.55;100.00
38253;BME280;24785;52.372;20.672;2022-12-18T11:20:41;102822.28;;;-2.03;100.00
38253;BME280;24785;52.372;20.672;2022-12-18T11:30:42;102813.56;;;-1.73;99.18
38253;BME280;24785;52.372;20.672;2022-12-18T11:40:44;102820.59;;;-1.73;98.48
38253;BME280;24785;52.372;20.672;2022-12-18T11:50:53;102822.31;;;-1.93;97.99
38253;BME280;24785;52.372;20.672;2022-12-18T12:22:11;102847.03;;;-2.05;100.00
38253;BME280;24785;52.372;20.672;2022-12-18T12:42:50;102879.38;;;-2.35;100.00
38253;BME280;24785;52.372;20.672;2022-12-18T12:53:23;102893.63;;;-2.49;100.00
38253;BME280;24785;52.372;20.672;2022-12-18T13:13:51;102911.75;;;-3.10;100.00
38253;BME280;24785;52.372;20.672;2022-12-18T13:23:53;102929.78;;;-3.39;100.00
38253;BME280;24785;52.372;20.672;2022-12-18T13:34:16;102954.28;;;-4.07;100.00
38253;BME280;24785;52.372;20.672;2022-12-18T13:54:35;102952.66;;;-4.67;100.00
38253;BME280;24785;52.372;20.672;2022-12-18T14:04:37;102948.19;;;-4.54;100.00
38253;BME280;24785;52.372;20.672;2022-12-18T14:14:42;102949.75;;;-4.51;100.00
38253;BME280;24785;52.372;20.672;2022-12-18T14:24:44;102959.44;;;-4.64;100.00
38253;BME280;24785;52.372;20.672;2022-12-18T14:34:53;102966.00;;;-4.59;100.00
38253;BME280;24785;52.372;20.672;2022-12-18T14:55:18;102988.97;;;-4.99;100.00
38253;BME280;24785;52.372;20.672;2022-12-18T15:05:30;103000.53;;;-5.27;100.00
38253;BME280;24785;52.372;20.672;2022-12-18T15:25:38;103016.81;;;-5.23;100.00
38253;BME280;24785;52.372;20.672;2022-12-18T15:35:39;103019.16;;;-5.19;100.00
38253;BME280;24785;52.372;20.672;2022-12-18T15:45:40;103010.34;;;-5.18;100.00
38253;BME280;24785;52.372;20.672;2022-12-18T15:55:41;103033.66;;;-5.27;100.00
38253;BME280;24785;52.372;20.672;2022-12-18T16:06:01;103033.25;;;-5.34;100.00
38253;BME280;24785;52.372;20.672;2022-12-18T16:16:03;103001.56;;;-5.29;100.00
38253;BME280;24785;52.372;20.672;2022-12-18T16:26:04;103012.88;;;-5.16;100.00
38253;BME280;24785;52.372;20.672;2022-12-18T16:36:05;103017.44;;;-5.07;100.00
38253;BME280;24785;52.372;20.672;2022-12-18T16:46:06;103043.88;;;-4.99;100.00
38253;BME280;24785;52.372;20.672;2022-12-18T16:56:07;103049.50;;;-4.92;100.00
38253;BME280;24785;52.372;20.672;2022-12-18T17:06:08;103056.44;;;-5.04;100.00
38253;BME280;24785;52.372;20.672;2022-12-18T17:16:10;103041.91;;;-5.08;100.00
38253;BME280;24785;52.372;20.672;2022-12-18T17:26:12;103047.66;;;-5.03;100.00
38253;BME280;24785;52.372;20.672;2022-12-18T17:36:14;103064.94;;;-5.13;100.00
38253;BME280;24785;52.372;20.672;2022-12-18T17:46:15;103071.19;;;-5.28;100.00
38253;BME280;24785;52.372;20.672;2022-12-18T17:56:17;103078.94;;;-5.40;100.00
38253;BME280;24785;52.372;20.672;2022-12-18T18:06:18;103077.16;;;-5.39;100.00
38253;BME280;24785;52.372;20.672;2022-12-18T18:16:19;103078.31;;;-5.30;100.00
38253;BME280;24785;52.372;20.672;2022-12-18T18:26:20;103067.66;;;-5.53;100.00
38253;BME280;24785;52.372;20.672;2022-12-18T18:36:23;103064.31;;;-5.67;100.00
38253;BME280;24785;52.372;20.672;2022-12-18T18:46:25;103066.16;;;-5.70;100.00
38253;BME280;24785;52.372;20.672;2022-12-18T18:56:26;103074.59;;;-5.79;100.00
38253;BME280;24785;52.372;20.672;2022-12-18T19:06:27;103069.47;;;-5.80;100.00
38253;BME280;24785;52.372;20.672;2022-12-18T19:16:29;103067.81;;;-5.81;100.00
38253;BME280;24785;52.372;20.672;2022-12-18T19:26:30;103087.13;;;-5.84;100.00
38253;BME280;24785;52.372;20.672;2022-12-18T19:36:31;103076.06;;;-5.87;100.00
38253;BME280;24785;52.372;20.672;2022-12-18T19:46:33;103097.34;;;-6.06;100.00
38253;BME280;24785;52.372;20.672;2022-12-18T19:56:34;103084.94;;;-6.03;100.00
38253;BME280;24785;52.372;20.672;2022-12-18T20:06:49;103086.66;;;-6.16;100.00
38253;BME280;24785;52.372;20.672;2022-12-18T20:16:53;103095.06;;;-6.25;100.00
38253;BME280;24785;52.372;20.672;2022-12-18T20:26:56;103110.38;;;-6.33;100.00
38253;BME280;24785;52.372;20.672;2022-12-18T20:36:57;103133.97;;;-6.35;100.00
38253;BME280;24785;52.372;20.672;2022-12-18T20:46:58;103139.00;;;-6.31;100.00
38253;BME280;24785;52.372;20.672;2022-12-18T20:57:03;103137.88;;;-6.27;100.00
38253;BME280;24785;52.372;20.672;2022-12-18T21:07:04;103127.56;;;-6.16;100.00
38253;BME280;24785;52.372;20.672;2022-12-18T21:17:05;103119.84;;;-6.18;100.00
38253;BME280;24785;52.372;20.672;2022-12-18T21:27:06;103115.56;;;-6.19;100.00
38253;BME280;24785;52.372;20.672;2022-12-18T21:37:07;103091.72;;;-6.27;100.00
38253;BME280;24785;52.372;20.672;2022-12-18T21:47:10;103054.66;;;-6.32;100.00
38253;BME280;24785;52.372;20.672;2022-12-18T21:57:11;103034.88;;;-6.49;100.00
38253;BME280;24785;52.372;20.672;2022-12-18T22:07:14;103043.34;;;-6.45;100.00
38253;BME280;24785;52.372;20.672;2022-12-18T22:17:15;103042.59;;;-6.47;100.00
38253;BME280;24785;52.372;20.672;2022-12-18T22:27:16;103034.56;;;-6.44;100.00
38253;BME280;24785;52.372;20.672;2022-12-18T22:37:17;103038.03;;;-6.44;100.00
38253;BME280;24785;52.372;20.672;2022-12-18T22:47:18;103022.28;;;-6.42;100.00
38253;BME280;24785;52.372;20.672;2022-12-18T22:57:19;103020.53;;;-6.29;100.00
38253;BME280;24785;52.372;20.672;2022-12-18T23:07:20;103021.47;;;-6.30;100.00
38253;BME280;24785;52.372;20.672;2022-12-18T23:17:20;103005.31;;;-6.22;100.00
38253;BME280;24785;52.372;20.672;2022-12-18T23:27:21;103006.88;;;-6.20;100.00
38253;BME280;24785;52.372;20.672;2022-12-18T23:37:22;103010.88;;;-6.14;100.00
38253;BME280;24785;52.372;20.672;2022-12-18T23:47:24;103002.00;;;-6.12;100.00
38253;BME280;24785;52.372;20.672;2022-12-18T23:57:25;102996.19;;;-6.03;100.00
